Time;durP1;ratioP1;P1;durP2;ratioP2;P2;SDS_P1;SDS_P2;PMS_P1;PMS_P2;Temp;Humidity;BMP_temperature;BMP_pressure;BME280_temperature;BME280_humidity;BME280_pressure;Samples;Min_cycle;Max_cycle;Signal;HPM_P1;HPM_P2
2022/02/28 00:01:59;;;;;;;11.07;4.65;;;4.70;99.90;;;;;;4867711;29;20022;-90
2022/02/28 00:04:25;;;;;;;14.45;4.75;;;4.70;99.90;;;;;;4869420;29;20040;-90
2022/02/28 00:06:52;;;;;;;14.90;4.00;;;4.70;99.90;;;;;;4868840;29;20029;-89
2022/02/28 00:09:18;;;;;;;17.02;5.70;;;4.80;99.90;;;;;;4869780;29;20074;-90
2022/02/28 00:11:43;;;;;;;14.63;5.15;;;4.80;99.90;;;;;;4867401;29;20021;-88
2022/02/28 00:14:09;;;;;;;17.38;5.22;;;4.80;99.90;;;;;;4869099;29;20049;-89
2022/02/28 00:16:35;;;;;;;12.82;5.00;;;4.80;99.90;;;;;;4867768;29;20387;-90
2022/02/28 00:19:00;;;;;;;15.27;4.65;;;4.80;99.90;;;;;;4869413;29;20025;-88
2022/02/28 00:21:26;;;;;;;14.18;5.15;;;4.80;99.90;;;;;;4868591;29;20022;-89
2022/02/28 00:23:52;;;;;;;11.25;4.30;;;4.80;99.90;;;;;;4867767;29;20037;-88
2022/02/28 00:26:18;;;;;;;10.07;4.53;;;4.80;99.90;;;;;;4866806;29;20104;-89
2022/02/28 00:28:44;;;;;;;21.35;4.68;;;4.80;99.90;;;;;;4871132;29;20094;-90
2022/02/28 00:31:09;;;;;;;13.35;5.38;;;4.90;99.90;;;;;;4871450;29;20077;-90
2022/02/28 00:33:35;;;;;;;13.70;5.32;;;4.90;99.90;;;;;;4872633;29;20033;-90
2022/02/28 00:36:01;;;;;;;12.23;4.88;;;4.90;99.90;;;;;;4873354;29;20044;-90
2022/02/28 00:38:26;;;;;;;13.30;5.18;;;4.90;99.90;;;;;;4871096;29;20037;-91
2022/02/28 00:40:52;;;;;;;17.38;5.22;;;4.90;99.90;;;;;;4871386;29;20029;-90
2022/02/28 00:43:18;;;;;;;18.08;6.13;;;4.90;99.90;;;;;;4872818;29;20040;-89
2022/02/28 00:45:44;;;;;;;18.70;5.68;;;4.90;99.90;;;;;;4870119;29;20539;-90
2022/02/28 00:48:10;;;;;;;15.15;5.22;;;4.90;99.90;;;;;;4871896;29;20101;-90
2022/02/28 00:50:36;;;;;;;12.40;4.53;;;4.80;99.90;;;;;;4870475;29;20048;-89
2022/02/28 00:53:03;;;;;;;15.35;5.55;;;4.90;99.90;;;;;;4873077;29;20061;-91
2022/02/28 00:55:29;;;;;;;13.35;5.10;;;4.90;99.90;;;;;;4871381;29;20021;-91
2022/02/28 00:57:54;;;;;;;15.25;6.35;;;4.90;99.90;;;;;;4872438;29;20037;-91
2022/02/28 01:00:21;;;;;;;10.65;4.90;;;4.90;99.90;;;;;;4873087;29;20033;-90
2022/02/28 01:02:48;;;;;;;17.98;5.70;;;5.00;99.90;;;;;;4871132;29;20032;-90
2022/02/28 01:05:17;;;;;;;14.95;5.25;;;5.00;99.90;;;;;;4871974;29;20037;-89
2022/02/28 01:07:43;;;;;;;17.30;5.28;;;5.00;99.90;;;;;;4869539;29;20470;-90
2022/02/28 01:10:11;;;;;;;17.75;5.97;;;5.00;99.90;;;;;;4870401;29;20028;-90
2022/02/28 01:12:38;;;;;;;12.95;4.20;;;5.00;99.90;;;;;;4877565;29;20105;-91
2022/02/28 01:15:06;;;;;;;13.98;5.22;;;5.00;99.90;;;;;;4882197;29;20033;-90
2022/02/28 01:17:32;;;;;;;16.55;4.88;;;5.00;99.90;;;;;;4882747;29;20475;-90
2022/02/28 01:19:58;;;;;;;19.27;6.35;;;5.00;99.90;;;;;;4872188;29;20028;-90
2022/02/28 01:22:25;;;;;;;15.77;5.40;;;4.90;99.90;;;;;;4871237;29;20037;-90
2022/02/28 01:24:50;;;;;;;14.15;5.47;;;4.90;99.90;;;;;;4874397;29;20032;-91
2022/02/28 01:27:17;;;;;;;16.30;4.88;;;4.90;99.90;;;;;;4875998;29;20033;-91
2022/02/28 01:29:43;;;;;;;17.33;5.40;;;4.90;99.90;;;;;;4889385;29;20037;-92
2022/02/28 01:32:08;;;;;;;11.40;5.32;;;4.90;99.90;;;;;;4886266;29;20032;-89
2022/02/28 01:34:34;;;;;;;20.77;5.43;;;4.90;99.90;;;;;;4901390;29;20017;-92
2022/02/28 01:37:00;;;;;;;18.95;5.72;;;4.80;99.90;;;;;;4903289;29;20033;-91
2022/02/28 01:39:26;;;;;;;14.82;5.25;;;4.80;99.90;;;;;;4900214;29;20036;-90
2022/02/28 01:41:51;;;;;;;13.93;5.28;;;4.80;99.90;;;;;;4897173;29;20073;-91
2022/02/28 01:44:17;;;;;;;19.00;6.05;;;4.80;99.90;;;;;;4897185;29;20069;-91
2022/02/28 01:46:43;;;;;;;20.77;5.57;;;4.70;99.90;;;;;;4886985;29;20067;-91
2022/02/28 01:49:08;;;;;;;22.70;5.97;;;4.70;99.90;;;;;;4881869;29;20029;-90
2022/02/28 01:51:36;;;;;;;14.88;5.57;;;4.70;99.90;;;;;;4880653;29;20025;-90
2022/02/28 01:54:02;;;;;;;13.82;6.00;;;4.70;99.90;;;;;;4880777;29;20062;-91
2022/02/28 01:56:28;;;;;;;13.38;5.97;;;4.70;99.90;;;;;;4881551;29;20032;-90
2022/02/28 01:58:54;;;;;;;15.68;6.45;;;4.70;99.90;;;;;;4880720;29;20033;-90
2022/02/28 02:01:19;;;;;;;13.40;5.68;;;4.70;99.90;;;;;;4880702;29;20150;-90
2022/02/28 02:03:45;;;;;;;16.58;6.28;;;4.70;99.90;;;;;;4880153;29;20620;-89
2022/02/28 02:06:12;;;;;;;20.75;6.00;;;4.70;99.90;;;;;;4880596;29;20514;-90
2022/02/28 02:08:39;;;;;;;21.88;6.40;;;4.70;99.90;;;;;;4880282;29;20033;-89
2022/02/28 02:11:05;;;;;;;22.45;6.25;;;4.70;99.90;;;;;;4880329;29;20035;-90
2022/02/28 02:13:31;;;;;;;21.60;6.72;;;4.70;99.90;;;;;;4879678;29;20132;-90
2022/02/28 02:15:59;;;;;;;16.60;6.93;;;4.70;99.90;;;;;;4880984;29;20040;-90
2022/02/28 02:18:25;;;;;;;16.08;7.05;;;4.70;99.90;;;;;;4879766;29;20055;-90
2022/02/28 02:20:51;;;;;;;17.02;6.43;;;4.70;99.90;;;;;;4879371;29;20582;-91
2022/02/28 02:23:18;;;;;;;16.25;6.50;;;4.70;99.90;;;;;;4881291;29;20040;-90
2022/02/28 02:25:44;;;;;;;23.23;7.03;;;4.70;99.90;;;;;;4871899;29;20051;-89
2022/02/28 02:28:12;;;;;;;17.90;8.10;;;4.60;99.90;;;;;;4860928;29;20136;-89
2022/02/28 02:30:38;;;;;;;24.48;7.45;;;4.50;99.90;;;;;;4861233;29;20056;-90
2022/02/28 02:33:04;;;;;;;20.30;6.80;;;4.50;99.90;;;;;;4860963;29;20516;-90
2022/02/28 02:35:31;;;;;;;21.00;7.07;;;4.50;99.90;;;;;;4861764;29;20505;-89
2022/02/28 02:37:57;;;;;;;19.17;6.90;;;4.50;99.90;;;;;;4862133;29;20041;-90
2022/02/28 02:40:22;;;;;;;23.35;7.20;;;4.50;99.90;;;;;;4861865;29;20036;-89
2022/02/28 02:42:48;;;;;;;20.40;7.10;;;4.50;99.90;;;;;;4860925;29;20064;-89
2022/02/28 02:45:14;;;;;;;22.45;7.90;;;4.50;99.90;;;;;;4861100;29;20033;-90
2022/02/28 02:47:40;;;;;;;19.77;7.45;;;4.50;99.90;;;;;;4861181;29;20540;-90
2022/02/28 02:50:07;;;;;;;22.75;7.00;;;4.50;99.90;;;;;;4860526;29;20022;-90
2022/02/28 02:52:33;;;;;;;21.27;7.10;;;4.60;99.90;;;;;;4860962;29;20032;-89
2022/02/28 02:54:59;;;;;;;25.88;6.82;;;4.60;99.90;;;;;;4860915;29;20026;-90
2022/02/28 02:57:24;;;;;;;19.05;6.93;;;4.60;99.90;;;;;;4860825;29;20082;-89
2022/02/28 02:59:50;;;;;;;14.73;6.47;;;4.60;99.90;;;;;;4860751;29;20037;-89
2022/02/28 03:02:16;;;;;;;19.83;7.38;;;4.70;99.90;;;;;;4865600;29;20124;-90
2022/02/28 03:04:42;;;;;;;18.60;7.93;;;4.60;99.90;;;;;;4871033;29;20045;-89
2022/02/28 03:07:16;;;;;;;15.32;7.50;;;4.70;99.90;;;;;;4868540;29;20030;-89
2022/02/28 03:09:43;;;;;;;16.05;7.78;;;4.70;99.90;;;;;;4861187;29;20116;-91
2022/02/28 03:12:09;;;;;;;19.65;8.23;;;4.70;99.90;;;;;;4859885;29;20056;-89
2022/02/28 03:14:35;;;;;;;19.30;7.57;;;4.70;99.90;;;;;;4859692;29;20441;-90
2022/02/28 03:17:00;;;;;;;18.85;7.43;;;4.80;99.90;;;;;;4859827;29;20085;-89
2022/02/28 03:19:26;;;;;;;18.35;7.43;;;4.80;99.90;;;;;;4859921;29;20025;-89
2022/02/28 03:21:52;;;;;;;18.73;8.05;;;4.80;99.90;;;;;;4860047;29;20037;-89
2022/02/28 03:24:17;;;;;;;19.55;6.63;;;4.80;99.90;;;;;;4859984;29;20044;-89
2022/02/28 03:26:43;;;;;;;23.88;7.55;;;4.90;99.90;;;;;;4859491;29;20026;-89
2022/02/28 03:29:09;;;;;;;22.48;7.60;;;4.90;99.90;;;;;;4860151;29;20429;-90
2022/02/28 03:31:34;;;;;;;24.67;9.52;;;4.90;99.90;;;;;;4844816;29;20029;-89
2022/02/28 03:34:00;;;;;;;26.05;8.55;;;5.00;99.90;;;;;;4860236;29;20448;-89
2022/02/28 03:36:26;;;;;;;26.40;8.65;;;4.90;99.90;;;;;;4860193;29;20026;-88
2022/02/28 03:38:53;;;;;;;25.50;8.27;;;4.90;99.90;;;;;;4861192;29;20034;-89
2022/02/28 03:41:19;;;;;;;21.17;8.27;;;4.90;99.90;;;;;;4860100;29;20033;-89
2022/02/28 03:43:45;;;;;;;25.23;9.25;;;4.90;99.90;;;;;;4859800;29;20026;-88
2022/02/28 03:46:10;;;;;;;26.45;8.77;;;4.90;99.90;;;;;;4859796;29;20029;-89
2022/02/28 03:48:36;;;;;;;26.17;9.50;;;4.90;99.90;;;;;;4859706;29;20534;-89
2022/02/28 03:51:04;;;;;;;27.45;9.05;;;4.90;99.90;;;;;;4860042;29;20037;-88
2022/02/28 03:53:33;;;;;;;21.95;9.13;;;4.90;99.90;;;;;;4861118;29;20034;-88
2022/02/28 03:55:58;;;;;;;30.83;10.15;;;4.90;99.90;;;;;;4860185;29;20038;-89
2022/02/28 03:58:24;;;;;;;28.13;9.40;;;4.90;99.90;;;;;;4859662;29;20040;-89
2022/02/28 04:00:51;;;;;;;28.77;9.57;;;4.90;99.90;;;;;;4861571;29;20499;-88
2022/02/28 04:03:17;;;;;;;21.50;9.13;;;4.90;99.90;;;;;;4863572;29;20523;-88
2022/02/28 04:05:44;;;;;;;29.02;9.98;;;4.90;99.90;;;;;;4863817;29;20105;-89
2022/02/28 04:08:10;;;;;;;24.30;9.60;;;4.90;99.90;;;;;;4863477;29;20045;-89
2022/02/28 04:10:35;;;;;;;22.90;10.18;;;4.90;99.90;;;;;;4863592;29;20062;-88
2022/02/28 04:13:01;;;;;;;24.58;10.02;;;4.90;99.90;;;;;;4863119;29;20053;-89
2022/02/28 04:15:27;;;;;;;26.85;9.73;;;5.00;99.90;;;;;;4863249;29;20544;-89
2022/02/28 04:17:52;;;;;;;27.92;10.52;;;5.00;99.90;;;;;;4862992;29;20030;-88
2022/02/28 04:20:18;;;;;;;26.45;9.60;;;5.00;99.90;;;;;;4863112;29;20040;-89
2022/02/28 04:22:44;;;;;;;28.08;9.77;;;5.00;99.90;;;;;;4863339;29;20038;-89
2022/02/28 04:25:10;;;;;;;22.35;9.95;;;5.00;99.90;;;;;;4863522;29;20484;-90
2022/02/28 04:27:36;;;;;;;19.70;8.13;;;5.10;99.90;;;;;;4866617;29;20045;-87
2022/02/28 04:30:03;;;;;;;24.33;9.60;;;5.10;99.90;;;;;;4865515;29;20044;-89
2022/02/28 04:32:29;;;;;;;28.95;12.15;;;5.10;99.90;;;;;;4868108;29;20484;-87
2022/02/28 04:34:55;;;;;;;22.20;10.52;;;5.10;99.90;;;;;;4873964;29;20035;-89
2022/02/28 04:37:20;;;;;;;38.25;12.13;;;5.10;99.90;;;;;;4872235;29;20025;-89
2022/02/28 04:39:46;;;;;;;23.70;12.02;;;5.10;99.90;;;;;;4862899;29;20065;-90
2022/02/28 04:42:12;;;;;;;23.48;9.95;;;5.10;99.90;;;;;;4862689;29;20029;-88
2022/02/28 04:44:38;;;;;;;26.00;10.73;;;5.10;99.90;;;;;;4862815;29;20040;-89
2022/02/28 04:47:04;;;;;;;24.85;10.80;;;5.10;99.90;;;;;;4862725;29;20053;-89
2022/02/28 04:49:29;;;;;;;22.88;9.55;;;5.10;99.90;;;;;;4862893;29;20048;-89
2022/02/28 04:51:55;;;;;;;23.25;10.88;;;5.10;99.90;;;;;;4863245;29;20026;-90
2022/02/28 04:54:20;;;;;;;28.75;12.07;;;5.10;99.90;;;;;;4865631;29;20502;-89
2022/02/28 04:56:46;;;;;;;27.17;12.00;;;5.10;99.90;;;;;;4870426;29;20030;-89
2022/02/28 04:59:12;;;;;;;21.83;9.73;;;5.10;99.90;;;;;;4884151;29;20026;-89
2022/02/28 05:01:40;;;;;;;25.30;9.40;;;5.10;99.90;;;;;;4885390;29;20048;-90
2022/02/28 05:04:06;;;;;;;22.60;9.60;;;5.20;99.90;;;;;;4885271;29;20086;-89
2022/02/28 05:06:32;;;;;;;36.45;11.85;;;5.20;99.90;;;;;;4885524;29;20029;-90
2022/02/28 05:08:58;;;;;;;30.23;12.70;;;5.20;99.90;;;;;;4885295;29;20037;-89
2022/02/28 05:11:24;;;;;;;38.75;13.43;;;5.20;99.90;;;;;;4880429;29;20081;-90
2022/02/28 05:13:50;;;;;;;31.55;12.55;;;5.20;99.90;;;;;;4865756;29;20049;-89
2022/02/28 05:16:15;;;;;;;37.65;12.18;;;5.20;99.90;;;;;;4870651;29;20064;-89
2022/02/28 05:18:41;;;;;;;36.85;13.95;;;5.20;99.90;;;;;;4871665;29;20057;-89
2022/02/28 05:21:06;;;;;;;31.02;12.55;;;5.20;99.90;;;;;;4867536;29;20400;-89
2022/02/28 05:23:32;;;;;;;36.13;12.45;;;5.30;99.90;;;;;;4882904;29;20045;-89
2022/02/28 05:25:58;;;;;;;28.33;12.70;;;5.30;99.90;;;;;;4883388;29;20037;-90
2022/02/28 05:28:23;;;;;;;30.80;12.10;;;5.30;99.90;;;;;;4883025;29;20042;-89
2022/02/28 05:30:49;;;;;;;34.42;11.95;;;5.30;99.90;;;;;;4868366;29;20644;-89
2022/02/28 05:33:16;;;;;;;32.80;13.43;;;5.30;99.90;;;;;;4870951;29;20077;-91
2022/02/28 05:35:42;;;;;;;42.08;13.88;;;5.40;99.90;;;;;;4882803;29;20041;-89
2022/02/28 05:38:08;;;;;;;35.05;14.27;;;5.40;99.90;;;;;;4883407;29;20389;-89
2022/02/28 05:40:34;;;;;;;31.98;12.23;;;5.40;99.90;;;;;;4882460;29;20137;-88
2022/02/28 05:43:00;;;;;;;36.15;13.43;;;5.40;99.90;;;;;;4881530;29;20036;-90
2022/02/28 05:45:26;;;;;;;33.22;13.88;;;5.50;99.90;;;;;;4881707;29;20399;-89
2022/02/28 05:47:51;;;;;;;37.25;13.13;;;5.50;99.90;;;;;;4882091;29;20029;-88
2022/02/28 05:50:17;;;;;;;35.75;14.77;;;5.50;99.90;;;;;;4880992;29;20471;-88
2022/02/28 05:52:45;;;;;;;42.40;14.27;;;5.50;99.90;;;;;;4880840;29;20065;-88
2022/02/28 05:55:11;;;;;;;22.55;9.07;;;5.60;99.90;;;;;;4881133;29;20029;-88
2022/02/28 05:57:38;;;;;;;28.23;12.63;;;5.60;99.90;;;;;;4881780;29;20036;-90
2022/02/28 06:00:06;;;;;;;36.28;14.38;;;5.60;99.90;;;;;;4882152;29;20055;-90
2022/02/28 06:02:32;;;;;;;32.33;14.50;;;5.60;99.90;;;;;;4882456;29;20033;-89
2022/02/28 06:04:58;;;;;;;36.58;15.07;;;5.70;99.90;;;;;;4880462;29;20112;-89
2022/02/28 06:07:24;;;;;;;35.63;13.88;;;5.70;99.90;;;;;;4880976;29;20392;-90
2022/02/28 06:09:49;;;;;;;35.97;15.05;;;5.70;99.90;;;;;;4880867;29;20032;-89
2022/02/28 06:12:15;;;;;;;41.53;14.10;;;5.70;99.90;;;;;;4880347;29;20111;-89
2022/02/28 06:14:41;;;;;;;35.78;14.73;;;5.70;99.90;;;;;;4880487;29;20587;-89
2022/02/28 06:17:06;;;;;;;35.28;14.85;;;5.80;99.90;;;;;;4880566;29;20041;-89
2022/02/28 06:19:32;;;;;;;26.98;12.30;;;5.70;99.90;;;;;;4880417;29;20052;-89
2022/02/28 06:21:58;;;;;;;27.67;11.20;;;5.80;99.90;;;;;;4880327;29;20037;-88
2022/02/28 06:24:25;;;;;;;35.70;12.38;;;5.80;99.90;;;;;;4878979;29;20487;-89
2022/02/28 06:26:52;;;;;;;38.28;14.90;;;5.80;99.90;;;;;;4877096;29;20115;-88
2022/02/28 06:29:18;;;;;;;30.08;13.35;;;5.80;99.90;;;;;;4879841;29;20081;-90
2022/02/28 06:31:44;;;;;;;19.38;8.88;;;5.80;99.90;;;;;;4879627;29;20024;-90
2022/02/28 06:34:11;;;;;;;31.83;13.18;;;5.90;99.90;;;;;;4879509;29;20393;-89
2022/02/28 06:36:37;;;;;;;31.17;13.52;;;5.90;99.90;;;;;;4879241;29;20028;-90
2022/02/28 06:39:03;;;;;;;29.48;14.55;;;5.90;99.90;;;;;;4879055;29;20036;-89
2022/02/28 06:41:29;;;;;;;24.52;12.25;;;5.90;99.90;;;;;;4879181;29;20119;-90
2022/02/28 06:43:55;;;;;;;35.97;13.90;;;5.90;99.90;;;;;;4879236;29;20057;-92
2022/02/28 06:46:20;;;;;;;27.67;11.75;;;6.00;99.90;;;;;;4880825;29;20060;-90
2022/02/28 06:48:46;;;;;;;32.20;13.40;;;5.90;99.90;;;;;;4889053;29;20045;-90
2022/02/28 06:51:14;;;;;;;38.15;14.48;;;5.90;99.90;;;;;;4885622;29;20028;-91
2022/02/28 06:53:40;;;;;;;32.70;14.13;;;6.00;99.90;;;;;;4883707;29;20032;-90
2022/02/28 06:56:06;;;;;;;31.40;13.20;;;6.00;99.90;;;;;;4889665;29;20029;-89
2022/02/28 06:58:32;;;;;;;35.65;12.48;;;6.00;99.90;;;;;;4882070;29;20043;-89
2022/02/28 07:00:57;;;;;;;32.97;12.65;;;6.00;99.90;;;;;;4879638;29;20440;-89
2022/02/28 07:03:23;;;;;;;36.65;12.75;;;6.00;99.90;;;;;;4879247;29;20105;-90
2022/02/28 07:05:52;;;;;;;33.53;14.10;;;6.10;99.90;;;;;;4878664;29;20089;-90
2022/02/28 07:08:21;;;;;;;31.98;13.43;;;6.00;99.90;;;;;;4878479;29;20109;-90
2022/02/28 07:10:48;;;;;;;35.10;13.18;;;6.10;99.90;;;;;;4878921;29;20033;-90
2022/02/28 07:13:14;;;;;;;28.77;14.70;;;6.10;99.90;;;;;;4878128;29;20109;-89
2022/02/28 07:15:44;;;;;;;33.42;14.38;;;6.10;99.90;;;;;;4870692;29;20028;-88
2022/02/28 07:18:10;;;;;;;43.13;15.10;;;6.10;99.90;;;;;;4878657;29;20499;-91
2022/02/28 07:20:36;;;;;;;33.42;15.43;;;6.10;99.90;;;;;;4870043;29;20025;-91
2022/02/28 07:23:03;;;;;;;28.02;11.63;;;6.20;99.90;;;;;;4868977;29;20182;-91
2022/02/28 07:25:29;;;;;;;29.83;13.30;;;6.20;99.90;;;;;;4868647;29;20029;-90
2022/02/28 07:27:55;;;;;;;38.22;15.13;;;6.20;99.90;;;;;;4867204;29;20037;-90
2022/02/28 07:30:21;;;;;;;31.42;13.65;;;6.20;99.90;;;;;;4865148;29;20081;-90
2022/02/28 07:32:47;;;;;;;30.80;12.27;;;6.20;99.90;;;;;;4867584;29;20038;-90
2022/02/28 07:35:12;;;;;;;30.48;11.82;;;6.20;99.90;;;;;;4871405;29;20029;-90
2022/02/28 07:37:38;;;;;;;32.97;14.38;;;6.30;99.90;;;;;;4876680;29;20539;-90
2022/02/28 07:40:04;;;;;;;38.65;12.60;;;6.30;99.90;;;;;;4880795;29;20024;-91
2022/02/28 07:42:30;;;;;;;29.85;12.40;;;6.30;99.90;;;;;;4868668;29;20056;-91
2022/02/28 07:44:56;;;;;;;34.40;13.30;;;6.30;99.90;;;;;;4866814;29;20154;-90
2022/02/28 07:47:22;;;;;;;33.17;13.45;;;6.30;99.90;;;;;;4871535;29;20033;-91
2022/02/28 07:49:48;;;;;;;25.50;12.48;;;6.30;99.90;;;;;;4868183;29;20756;-90
2022/02/28 07:52:13;;;;;;;26.95;13.07;;;6.40;99.90;;;;;;4863885;29;20112;-89
2022/02/28 07:54:39;;;;;;;35.17;14.60;;;6.40;99.90;;;;;;4858685;29;20038;-90
2022/02/28 07:57:05;;;;;;;30.80;11.63;;;6.40;99.90;;;;;;4860277;29;20061;-88
2022/02/28 07:59:30;;;;;;;37.38;15.20;;;6.40;99.90;;;;;;4859254;29;20025;-89
2022/02/28 08:01:56;;;;;;;25.67;13.00;;;6.40;99.90;;;;;;4859324;29;20108;-90
2022/02/28 08:04:22;;;;;;;30.00;13.20;;;6.40;99.90;;;;;;4859849;29;20174;-90
2022/02/28 08:06:47;;;;;;;35.95;13.55;;;6.50;99.90;;;;;;4870064;29;20029;-89
2022/02/28 08:09:13;;;;;;;39.42;14.65;;;6.50;99.90;;;;;;4873596;29;20506;-90
2022/02/28 08:11:39;;;;;;;38.20;12.68;;;6.50;99.90;;;;;;4872890;29;20045;-87
2022/02/28 08:14:04;;;;;;;28.98;12.40;;;6.50;99.90;;;;;;4874397;29;20045;-88
2022/02/28 08:16:30;;;;;;;32.28;15.27;;;6.50;99.90;;;;;;4865776;29;21149;-87
2022/02/28 08:18:55;;;;;;;43.70;14.25;;;6.60;99.90;;;;;;4867069;29;20057;-87
2022/02/28 08:21:21;;;;;;;28.70;13.00;;;6.60;99.90;;;;;;4865990;29;20140;-87
2022/02/28 08:23:47;;;;;;;33.92;13.50;;;6.60;99.90;;;;;;4871015;29;20078;-87
2022/02/28 08:26:13;;;;;;;38.42;14.52;;;6.60;99.90;;;;;;4872090;29;20022;-88
2022/02/28 08:28:39;;;;;;;29.92;14.20;;;6.60;99.90;;;;;;4885354;29;20033;-89
2022/02/28 08:31:04;;;;;;;37.92;13.73;;;6.60;99.90;;;;;;4877829;29;20021;-87
2022/02/28 08:33:30;;;;;;;35.28;14.57;;;6.60;99.90;;;;;;4881017;29;20056;-89
2022/02/28 08:35:56;;;;;;;28.85;11.82;;;6.70;99.90;;;;;;4889479;29;20026;-88
2022/02/28 08:38:22;;;;;;;33.10;13.20;;;6.70;99.90;;;;;;4866049;29;20042;-87
2022/02/28 08:40:48;;;;;;;26.10;12.27;;;6.70;99.90;;;;;;4879002;29;20037;-87
2022/02/28 08:43:14;;;;;;;33.13;13.57;;;6.70;99.90;;;;;;4886389;29;20029;-87
2022/02/28 08:45:39;;;;;;;29.85;13.23;;;6.70;99.90;;;;;;4885363;29;20608;-86
2022/02/28 08:48:05;;;;;;;35.17;13.45;;;6.80;99.90;;;;;;4880847;29;20037;-88
2022/02/28 08:50:31;;;;;;;38.83;14.70;;;6.80;99.90;;;;;;4881805;29;20021;-88
2022/02/28 08:52:58;;;;;;;33.33;14.93;;;6.80;99.90;;;;;;4879871;29;20029;-88
2022/02/28 08:55:24;;;;;;;33.30;12.93;;;6.80;99.90;;;;;;4878798;29;20030;-87
2022/02/28 08:57:50;;;;;;;29.33;12.00;;;6.80;99.90;;;;;;4872925;29;20444;-87
2022/02/28 09:00:16;;;;;;;24.50;13.05;;;6.90;99.90;;;;;;4873381;29;20029;-88
2022/02/28 09:02:42;;;;;;;41.28;14.18;;;6.90;99.90;;;;;;4880426;29;20128;-88
2022/02/28 09:05:08;;;;;;;25.95;12.82;;;7.00;99.90;;;;;;4880570;29;20353;-88
2022/02/28 09:07:34;;;;;;;32.28;13.95;;;7.00;99.90;;;;;;4880260;29;20035;-88
2022/02/28 09:10:00;;;;;;;33.38;12.65;;;7.00;99.90;;;;;;4881941;29;20462;-89
2022/02/28 09:12:26;;;;;;;30.05;11.38;;;7.00;99.90;;;;;;4880858;29;20563;-88
2022/02/28 09:14:52;;;;;;;40.55;11.60;;;7.00;99.90;;;;;;4870584;29;20064;-89
2022/02/28 09:17:18;;;;;;;34.53;13.70;;;7.10;99.90;;;;;;4877310;29;20026;-88
2022/02/28 09:19:44;;;;;;;35.67;12.82;;;7.10;99.90;;;;;;4861754;29;20045;-87
2022/02/28 09:22:09;;;;;;;30.00;12.38;;;7.10;99.90;;;;;;4861956;29;20026;-87
2022/02/28 09:24:35;;;;;;;27.73;11.80;;;7.20;99.90;;;;;;4869499;29;20120;-88
2022/02/28 09:27:03;;;;;;;33.15;12.40;;;7.10;99.90;;;;;;4881761;29;20052;-88
2022/02/28 09:29:32;;;;;;;28.70;12.48;;;7.20;99.90;;;;;;4880116;29;20033;-88
2022/02/28 09:31:58;;;;;;;25.40;10.85;;;7.20;99.90;;;;;;4880182;29;20029;-88
2022/02/28 09:34:24;;;;;;;35.40;13.55;;;7.20;99.90;;;;;;4880532;29;20085;-89
2022/02/28 09:36:53;;;;;;;33.67;10.93;;;7.20;99.90;;;;;;4880477;29;20025;-89
2022/02/28 09:39:19;;;;;;;36.53;11.25;;;7.30;99.90;;;;;;4880351;29;20029;-89
2022/02/28 09:41:47;;;;;;;35.80;11.45;;;7.30;99.90;;;;;;4871162;29;20544;-88
2022/02/28 09:44:14;;;;;;;28.45;12.60;;;7.30;99.90;;;;;;4861874;29;20037;-89
2022/02/28 09:46:42;;;;;;;26.00;11.35;;;7.30;99.90;;;;;;4871636;29;20487;-89
2022/02/28 09:49:09;;;;;;;27.42;11.07;;;7.30;99.90;;;;;;4884599;29;20048;-88
2022/02/28 09:51:36;;;;;;;33.10;11.45;;;7.40;99.90;;;;;;4890862;29;20100;-88
2022/02/28 09:54:02;;;;;;;26.13;10.55;;;7.40;99.90;;;;;;4876547;29;20041;-88
2022/02/28 09:56:27;;;;;;;33.20;10.05;;;7.40;99.90;;;;;;4875339;29;20033;-88
2022/02/28 09:58:54;;;;;;;32.38;11.13;;;7.50;99.90;;;;;;4878769;29;20033;-88
2022/02/28 10:01:19;;;;;;;28.23;11.60;;;7.50;99.90;;;;;;4878488;29;20037;-89
2022/02/28 10:03:45;;;;;;;24.13;10.23;;;7.60;99.90;;;;;;4869693;29;20123;-88
2022/02/28 10:06:11;;;;;;;28.02;9.75;;;7.60;99.90;;;;;;4877146;29;20033;-87
2022/02/28 10:08:40;;;;;;;26.90;10.45;;;7.60;99.90;;;;;;4871080;29;20028;-88
2022/02/28 10:11:21;;;;;;;34.85;11.00;;;7.70;99.90;;;;;;4872321;29;20444;-87
2022/02/28 10:13:47;;;;;;;28.98;11.88;;;7.70;99.90;;;;;;4861242;29;20057;-88
2022/02/28 10:16:17;;;;;;;36.20;10.50;;;7.80;99.90;;;;;;4877982;29;20484;-88
2022/02/28 10:18:43;;;;;;;31.17;10.15;;;7.80;99.90;;;;;;4868744;29;20103;-90
2022/02/28 10:21:09;;;;;;;26.88;11.70;;;7.90;99.90;;;;;;4862299;29;20049;-92
2022/02/28 10:23:48;;;;;;;21.60;10.15;;;7.90;99.90;;;;;;4865954;29;20089;-92
2022/02/28 10:26:14;;;;;;;29.42;10.43;;;8.00;99.90;;;;;;4861681;29;20029;-92
2022/02/28 10:28:39;;;;;;;28.15;9.40;;;8.10;99.90;;;;;;4872207;29;20101;-92
2022/02/28 10:31:06;;;;;;;30.38;8.98;;;8.10;99.90;;;;;;4870235;29;20066;-93
2022/02/28 10:33:37;;;;;;;26.30;9.63;;;8.20;99.90;;;;;;4861081;29;20040;-92
2022/02/28 10:36:17;;;;;;;34.85;9.80;;;8.20;99.90;;;;;;4860560;29;20041;-92
2022/02/28 10:38:48;;;;;;;29.02;9.88;;;8.20;99.90;;;;;;4859258;29;20399;-92
2022/02/28 10:41:17;;;;;;;27.80;9.52;;;8.30;99.90;;;;;;4862793;29;20026;-92
2022/02/28 10:43:44;;;;;;;33.40;10.93;;;8.30;99.90;;;;;;4859078;29;20034;-91
2022/02/28 10:46:20;;;;;;;25.63;9.23;;;8.40;99.90;;;;;;4859573;29;20083;-91
2022/02/28 10:49:02;;;;;;;27.08;9.57;;;8.40;99.90;;;;;;4859480;29;20044;-93
2022/02/28 10:51:29;;;;;;;24.50;9.65;;;8.50;99.90;;;;;;4860184;29;20049;-91
2022/02/28 10:54:38;;;;;;;25.60;8.57;;;8.50;99.90;;;;;;4861515;29;20120;-93
2022/02/28 10:57:15;;;;;;;33.95;8.05;;;8.50;99.90;;;;;;4827274;29;20070;-93
2022/02/28 10:59:49;;;;;;;23.90;8.35;;;8.60;99.90;;;;;;4826697;29;20029;-92
2022/02/28 11:02:21;;;;;;;26.80;9.45;;;8.60;99.90;;;;;;4842071;29;20154;-93
2022/02/28 11:04:46;;;;;;;22.13;7.80;;;8.70;99.90;;;;;;4826793;29;20069;-93
2022/02/28 11:07:22;;;;;;;25.52;8.18;;;8.70;99.90;;;;;;4826749;29;20054;-91
2022/02/28 11:09:48;;;;;;;14.70;7.75;;;8.80;99.90;;;;;;4826460;29;20034;-92
2022/02/28 11:12:26;;;;;;;25.92;8.15;;;8.80;99.90;;;;;;4826813;29;20045;-92
2022/02/28 11:14:56;;;;;;;21.52;8.65;;;8.80;99.90;;;;;;4826697;29;20046;-92
2022/02/28 11:17:28;;;;;;;27.17;8.63;;;8.80;99.90;;;;;;4827211;29;20042;-93
2022/02/28 11:19:55;;;;;;;21.77;8.32;;;8.80;99.90;;;;;;4826459;29;20049;-92
2022/02/28 11:22:21;;;;;;;17.52;7.18;;;8.80;99.90;;;;;;4826995;29;20038;-92
2022/02/28 11:24:47;;;;;;;20.83;7.40;;;8.90;99.90;;;;;;4826487;29;20034;-93
2022/02/28 11:27:16;;;;;;;22.23;7.43;;;8.90;99.90;;;;;;4834106;29;20045;-92
2022/02/28 11:29:43;;;;;;;19.30;6.80;;;9.00;99.90;;;;;;4860977;29;20044;-93
2022/02/28 11:32:10;;;;;;;20.20;7.43;;;9.10;99.90;;;;;;4860504;29;20050;-92
2022/02/28 11:34:36;;;;;;;22.75;6.95;;;9.10;99.90;;;;;;4860898;29;20120;-93
2022/02/28 11:37:04;;;;;;;29.00;6.88;;;9.10;99.90;;;;;;4862207;29;20029;-93
2022/02/28 11:39:41;;;;;;;15.57;5.75;;;9.20;99.90;;;;;;4865634;29;20040;-91
2022/02/28 11:42:08;;;;;;;25.55;7.07;;;9.20;99.90;;;;;;4866366;29;20022;-91
2022/02/28 11:44:55;;;;;;;23.67;6.85;;;9.20;99.90;;;;;;4851499;29;20049;-91
2022/02/28 11:47:23;;;;;;;14.18;5.60;;;9.20;99.90;;;;;;4865672;29;20030;-91
2022/02/28 11:49:49;;;;;;;25.73;5.70;;;9.20;99.90;;;;;;4862052;29;20064;-92
2022/02/28 11:52:33;;;;;;;16.48;5.97;;;9.30;99.90;;;;;;4860616;29;20025;-92
2022/02/28 11:55:04;;;;;;;19.90;5.40;;;9.20;99.90;;;;;;4860426;29;20029;-92
2022/02/28 11:57:49;;;;;;;19.65;4.95;;;9.20;99.90;;;;;;4860142;29;20403;-92
2022/02/28 12:00:20;;;;;;;14.82;4.32;;;9.20;99.90;;;;;;4860392;29;20041;-91
2022/02/28 12:02:47;;;;;;;17.58;5.28;;;9.20;99.90;;;;;;4860184;29;20033;-92
2022/02/28 12:05:48;;;;;;;19.10;4.15;;;9.30;99.90;;;;;;4860454;29;20030;-91
2022/02/28 12:08:18;;;;;;;16.88;4.35;;;9.30;99.90;;;;;;4825499;29;20077;-91
2022/02/28 12:10:56;;;;;;;13.65;3.58;;;9.30;99.90;;;;;;4826879;29;20076;-92
2022/02/28 12:13:36;;;;;;;20.25;4.72;;;9.30;99.90;;;;;;4826501;29;20459;-91
2022/02/28 12:16:09;;;;;;;16.33;3.20;;;9.30;99.90;;;;;;4827057;29;20099;-90
2022/02/28 12:18:35;;;;;;;9.00;3.20;;;9.30;99.90;;;;;;4836702;29;20053;-92
2022/02/28 12:21:08;;;;;;;11.75;3.83;;;9.40;99.90;;;;;;4827387;29;20038;-90
2022/02/28 12:23:45;;;;;;;15.20;3.70;;;9.40;99.90;;;;;;4831725;29;20050;-91
2022/02/28 12:26:11;;;;;;;12.23;3.30;;;9.40;99.90;;;;;;4811684;29;20062;-91
2022/02/28 12:28:40;;;;;;;21.05;4.18;;;9.50;99.90;;;;;;4811526;29;20149;-91
2022/02/28 12:31:09;;;;;;;13.15;3.50;;;9.50;99.90;;;;;;4812006;29;20509;-93
2022/02/28 12:33:35;;;;;;;13.05;3.45;;;9.50;99.90;;;;;;4827046;29;20098;-91
2022/02/28 12:36:14;;;;;;;17.45;4.95;;;9.50;99.90;;;;;;4811717;29;20069;-92
2022/02/28 12:38:55;;;;;;;15.35;3.42;;;9.50;99.90;;;;;;4826789;29;20069;-92
2022/02/28 12:41:24;;;;;;;6.88;3.08;;;9.50;99.90;;;;;;4820281;29;20037;-91
2022/02/28 12:43:51;;;;;;;18.13;4.13;;;9.50;99.90;;;;;;4876803;29;20373;-92